createdAt,value
2023-01-09T00:01:20.416Z,63.14
2023-01-09T00:03:47.515Z,63.35
2023-01-09T00:06:14.620Z,63.45
2023-01-09T00:08:43.828Z,63.67
2023-01-09T00:11:10.777Z,64.01
2023-01-09T00:13:38.650Z,63.72
2023-01-09T00:16:07.464Z,63.87
2023-01-09T00:18:35.609Z,63.53
2023-01-09T00:21:04.627Z,63.82
2023-01-09T00:23:31.775Z,63.70
2023-01-09T00:26:13.431Z,63.39
2023-01-09T00:28:41.148Z,62.98
2023-01-09T00:31:09.809Z,62.96
2023-01-09T00:33:41.063Z,63.29
2023-01-09T00:36:08.853Z,63.26
2023-01-09T00:38:37.563Z,62.70
2023-01-09T00:41:08.178Z,62.72
2023-01-09T00:43:40.172Z,63.13
2023-01-09T00:46:08.537Z,63.17
2023-01-09T00:48:39.237Z,63.60
2023-01-09T00:51:08.336Z,64.07
2023-01-09T00:53:40.711Z,63.76
2023-01-09T00:56:12.654Z,63.84
2023-01-09T00:58:39.935Z,63.96
2023-01-09T01:01:06.928Z,64.04
2023-01-09T01:03:33.923Z,64.22
2023-01-09T01:06:19.419Z,64.15
2023-01-09T01:08:46.769Z,64.19
2023-01-09T01:11:13.731Z,64.18
2023-01-09T01:13:41.708Z,64.38
2023-01-09T01:16:12.122Z,64.27
2023-01-09T01:18:40.214Z,64.25
2023-01-09T01:21:11.914Z,64.46
2023-01-09T01:23:38.909Z,64.58
2023-01-09T01:26:16.656Z,64.32
2023-01-09T01:28:43.559Z,64.54
2023-01-09T01:31:17.362Z,64.61
2023-01-09T01:33:44.416Z,64.64
2023-01-09T01:36:11.372Z,64.72
2023-01-09T01:38:38.318Z,64.22
2023-01-09T01:41:05.838Z,63.75
2023-01-09T01:43:55.624Z,64.20
2023-01-09T01:46:23.220Z,64.08
2023-01-09T01:48:55.287Z,63.38
2023-01-09T01:51:25.046Z,63.05
2023-01-09T01:53:55.755Z,63.72
2023-01-09T01:56:37.959Z,63.68
2023-01-09T01:59:17.478Z,63.24
2023-01-09T02:01:48.786Z,62.38
2023-01-09T02:04:16.180Z,62.84
2023-01-09T02:06:46.620Z,62.59
2023-01-09T02:09:15.556Z,63.01
2023-01-09T02:11:46.589Z,63.08
2023-01-09T02:14:15.953Z,63.30
2023-01-09T02:17:09.104Z,63.86
2023-01-09T02:19:48.128Z,63.71
2023-01-09T02:22:43.843Z,64.17
2023-01-09T02:25:39.642Z,64.13
2023-01-09T02:28:20.612Z,63.89
2023-01-09T02:30:57.368Z,64.71
2023-01-09T02:34:12.544Z,64.84
2023-01-09T02:37:01.123Z,65.02
2023-01-09T02:39:31.418Z,64.85
2023-01-09T02:42:06.037Z,65.08
2023-01-09T02:44:36.230Z,64.95
2023-01-09T02:47:29.626Z,64.63
2023-01-09T02:50:02.188Z,64.73
2023-01-09T02:52:48.827Z,64.52
2023-01-09T02:55:54.220Z,64.86
2023-01-09T02:58:39.688Z,65.54
2023-01-09T03:01:24.981Z,64.59
2023-01-09T03:04:13.401Z,64.76
2023-01-09T03:06:56.107Z,64.75
2023-01-09T03:09:27.706Z,64.17
2023-01-09T03:12:01.887Z,63.75
2023-01-09T03:14:32.484Z,64.04
2023-01-09T03:17:11.733Z,64.08
2023-01-09T03:19:39.190Z,63.75
2023-01-09T03:22:08.256Z,63.52
2023-01-09T03:24:35.141Z,63.49
2023-01-09T03:27:02.908Z,63.27
2023-01-09T03:29:30.067Z,63.26
2023-01-09T03:31:57.614Z,63.02
2023-01-09T03:34:24.576Z,62.90
2023-01-09T03:36:51.738Z,62.65
2023-01-09T03:39:18.682Z,62.90
2023-01-09T03:41:45.489Z,63.13
2023-01-09T03:44:12.385Z,63.31
2023-01-09T03:46:39.231Z,63.06
2023-01-09T03:49:06.187Z,63.08
2023-01-09T03:51:33.131Z,63.09
2023-01-09T03:54:00.108Z,62.76
2023-01-09T03:56:27.032Z,62.33
2023-01-09T03:58:53.895Z,62.65
2023-01-09T04:01:20.915Z,62.84
2023-01-09T04:03:48.239Z,62.63
2023-01-09T04:06:15.243Z,62.82
2023-01-09T04:08:42.194Z,63.01
2023-01-09T04:11:09.876Z,63.05
2023-01-09T04:13:36.815Z,63.16
2023-01-09T04:16:03.933Z,62.97
2023-01-09T04:18:31.125Z,62.64
2023-01-09T04:20:58.685Z,63.07
2023-01-09T04:23:25.532Z,63.10
2023-01-09T04:25:52.486Z,63.12
2023-01-09T04:28:22.733Z,62.91
2023-01-09T04:30:49.670Z,62.48
2023-01-09T04:33:16.617Z,62.83
2023-01-09T04:35:43.569Z,62.40
2023-01-09T04:38:10.412Z,62.59
2023-01-09T04:40:37.259Z,62.54
2023-01-09T04:43:04.108Z,62.31
2023-01-09T04:45:34.088Z,62.85
2023-01-09T04:48:01.586Z,62.91
2023-01-09T04:50:28.745Z,63.10
2023-01-09T04:52:57.843Z,63.39
2023-01-09T04:55:25.014Z,63.52
2023-01-09T04:57:52.157Z,63.29
2023-01-09T05:00:19.309Z,62.94
2023-01-09T05:02:46.162Z,63.20
2023-01-09T05:05:13.108Z,63.33
2023-01-09T05:07:40.683Z,62.93
2023-01-09T05:10:10.231Z,63.11
2023-01-09T05:12:37.359Z,63.17
2023-01-09T05:15:05.821Z,62.99
2023-01-09T05:17:32.772Z,63.08
2023-01-09T05:20:01.113Z,62.75
2023-01-09T05:22:29.031Z,62.54
2023-01-09T05:24:55.976Z,62.41
2023-01-09T05:27:22.937Z,62.99
2023-01-09T05:29:49.825Z,63.05
2023-01-09T05:32:16.734Z,62.89
2023-01-09T05:34:43.677Z,62.39
2023-01-09T05:37:10.528Z,62.75
2023-01-09T05:39:37.497Z,62.78
2023-01-09T05:42:04.649Z,62.42
2023-01-09T05:44:31.462Z,62.45
2023-01-09T05:46:58.330Z,62.31
2023-01-09T05:49:25.278Z,61.92
2023-01-09T05:51:52.127Z,62.50
2023-01-09T05:54:18.990Z,62.61
2023-01-09T05:56:45.821Z,62.40
2023-01-09T05:59:12.676Z,62.53
2023-01-09T06:01:39.620Z,62.70
2023-01-09T06:04:06.468Z,62.50
2023-01-09T06:06:33.417Z,62.62
2023-01-09T06:09:00.366Z,62.92
2023-01-09T06:11:27.326Z,62.21
2023-01-09T06:13:54.273Z,61.84
2023-01-09T06:16:21.147Z,62.41
2023-01-09T06:18:48.172Z,62.04
2023-01-09T06:21:15.141Z,62.20
2023-01-09T06:23:42.091Z,62.34
2023-01-09T06:26:09.125Z,62.87
2023-01-09T06:28:36.076Z,62.63
2023-01-09T06:31:03.203Z,62.22
2023-01-09T06:33:30.594Z,62.57
2023-01-09T06:35:57.438Z,62.78
2023-01-09T06:38:24.351Z,62.77
2023-01-09T06:40:51.237Z,62.41
2023-01-09T06:43:18.088Z,62.00
2023-01-09T06:45:45.237Z,61.95
2023-01-09T06:48:12.724Z,62.09
2023-01-09T06:50:39.667Z,61.89
2023-01-09T06:53:07.228Z,62.22
2023-01-09T06:55:34.195Z,62.71
2023-01-09T06:58:01.127Z,63.42
2023-01-09T07:00:28.500Z,63.40
2023-01-09T07:02:55.429Z,63.27
2023-01-09T07:05:22.585Z,63.55
2023-01-09T07:07:49.500Z,63.53
2023-01-09T07:10:16.385Z,63.34
2023-01-09T07:12:43.456Z,63.80
2023-01-09T07:15:11.316Z,63.25
2023-01-09T07:17:38.473Z,62.89
2023-01-09T07:20:06.230Z,63.04
2023-01-09T07:22:33.288Z,62.79
2023-01-09T07:25:00.248Z,62.41
2023-01-09T07:27:27.290Z,62.05
2023-01-09T07:29:54.345Z,62.09
2023-01-09T07:32:21.393Z,62.17
2023-01-09T07:34:49.475Z,61.41
2023-01-09T07:37:16.424Z,61.26
2023-01-09T07:39:44.225Z,61.41
2023-01-09T07:42:11.968Z,61.35
2023-01-09T07:44:38.807Z,60.89
2023-01-09T07:47:05.867Z,60.55
2023-01-09T07:49:33.021Z,60.59
2023-01-09T07:51:59.969Z,59.99
2023-01-09T07:54:26.927Z,59.34
2023-01-09T07:56:54.190Z,62.47
2023-01-09T07:59:21.128Z,64.45
2023-01-09T08:01:48.157Z,63.52
2023-01-09T08:04:15.235Z,62.84
2023-01-09T08:06:42.182Z,62.76
2023-01-09T08:09:09.541Z,60.74
2023-01-09T08:11:36.602Z,59.46
2023-01-09T08:14:04.059Z,58.80
2023-01-09T08:16:31.007Z,60.53
2023-01-09T08:18:57.970Z,62.41
2023-01-09T08:21:25.422Z,63.48
2023-01-09T08:23:52.369Z,60.99
2023-01-09T08:26:20.040Z,57.69
2023-01-09T08:28:47.197Z,57.78
2023-01-09T08:31:15.330Z,60.01
2023-01-09T08:33:42.937Z,62.08
2023-01-09T08:36:10.224Z,63.61
2023-01-09T08:38:37.993Z,61.79
2023-01-09T08:41:24.977Z,59.18
2023-01-09T08:44:11.060Z,59.45
2023-01-09T08:46:57.158Z,61.71
2023-01-09T08:49:24.100Z,62.85
2023-01-09T08:51:51.383Z,61.16
2023-01-09T08:54:18.325Z,59.52
2023-01-09T08:56:45.482Z,59.34
2023-01-09T08:59:13.977Z,61.61
2023-01-09T09:01:41.070Z,64.43
2023-01-09T09:04:08.257Z,62.76
2023-01-09T09:06:38.293Z,60.95
2023-01-09T09:09:06.789Z,59.45
2023-01-09T09:11:37.496Z,59.87
2023-01-09T09:14:25.428Z,63.08
2023-01-09T09:16:53.443Z,64.73
2023-01-09T09:19:20.580Z,63.15
2023-01-09T09:21:47.716Z,61.43
2023-01-09T09:24:14.796Z,60.79
2023-01-09T09:26:43.782Z,60.04
2023-01-09T09:29:11.857Z,58.98
2023-01-09T09:31:39.267Z,61.15
2023-01-09T09:34:07.889Z,64.08
2023-01-09T09:36:35.087Z,63.30
2023-01-09T09:39:03.030Z,61.48
2023-01-09T09:42:08.246Z,59.90
2023-01-09T09:44:54.394Z,60.12
2023-01-09T09:47:43.601Z,62.92
2023-01-09T09:50:22.916Z,63.25
2023-01-09T09:52:59.316Z,61.52
2023-01-09T09:55:38.862Z,60.12
2023-01-09T09:58:11.632Z,59.39
2023-01-09T10:00:38.656Z,61.75
2023-01-09T10:03:12.139Z,64.19
2023-01-09T10:05:46.600Z,63.02
2023-01-09T10:08:25.889Z,61.24
2023-01-09T10:10:55.772Z,60.80
2023-01-09T10:13:42.536Z,60.33
2023-01-09T10:16:28.806Z,60.16
2023-01-09T10:19:19.625Z,59.92
2023-01-09T10:22:14.000Z,59.59
2023-01-09T10:24:50.163Z,59.75
2023-01-09T10:27:41.481Z,62.87
2023-01-09T10:30:14.360Z,64.66
2023-01-09T10:32:47.436Z,63.14
2023-01-09T10:35:47.603Z,62.22
2023-01-09T10:38:23.507Z,61.91
2023-01-09T10:41:07.954Z,61.48
2023-01-09T10:43:47.699Z,61.32
2023-01-09T10:46:30.931Z,61.49
2023-01-09T10:49:07.388Z,62.35
2023-01-09T10:51:48.555Z,62.65
2023-01-09T10:54:19.354Z,63.54
2023-01-09T10:57:25.857Z,63.99
2023-01-09T10:59:52.872Z,63.45
2023-01-09T11:02:31.381Z,62.67
2023-01-09T11:04:58.365Z,62.78
2023-01-09T11:07:31.075Z,62.92
2023-01-09T11:10:09.992Z,63.66
2023-01-09T11:12:37.225Z,64.65
2023-01-09T11:15:16.925Z,64.81
2023-01-09T11:17:44.856Z,64.69
2023-01-09T11:20:20.422Z,65.41
2023-01-09T11:22:53.694Z,65.19
2023-01-09T11:25:23.186Z,65.26
2023-01-09T11:28:08.572Z,64.65
2023-01-09T11:30:37.367Z,64.46
2023-01-09T11:33:26.315Z,64.71
2023-01-09T11:36:11.197Z,65.32
2023-01-09T11:38:54.256Z,64.89
2023-01-09T11:41:24.019Z,64.56
2023-01-09T11:43:53.005Z,64.87
2023-01-09T11:46:49.460Z,64.72
2023-01-09T11:49:25.237Z,64.58
2023-01-09T11:52:16.349Z,64.68
2023-01-09T11:54:54.481Z,64.79
2023-01-09T11:57:24.453Z,64.72
2023-01-09T11:59:51.461Z,65.09
2023-01-09T12:02:37.548Z,64.78
2023-01-09T12:05:23.124Z,64.71
2023-01-09T12:07:50.072Z,65.63
2023-01-09T12:10:29.713Z,66.86
2023-01-09T12:13:34.107Z,66.61
2023-01-09T12:16:03.963Z,66.86
2023-01-09T12:18:40.924Z,67.23
2023-01-09T12:21:23.347Z,68.16
2023-01-09T12:24:14.734Z,69.07
2023-01-09T12:27:06.968Z,70.08
2023-01-09T12:29:55.491Z,70.75
2023-01-09T12:32:28.676Z,70.12
2023-01-09T12:35:14.163Z,70.08
2023-01-09T12:37:50.882Z,70.90
2023-01-09T12:40:32.407Z,70.95
2023-01-09T12:43:16.758Z,71.72
2023-01-09T12:46:05.493Z,71.52
2023-01-09T12:48:47.814Z,71.15
2023-01-09T12:51:20.793Z,70.86
2023-01-09T12:53:52.169Z,70.78
2023-01-09T12:56:26.472Z,71.20
2023-01-09T12:59:02.105Z,71.34
2023-01-09T13:01:45.493Z,71.44
2023-01-09T13:04:34.917Z,71.62
2023-01-09T13:07:12.192Z,71.75
2023-01-09T13:09:55.236Z,71.29
2023-01-09T13:12:25.369Z,71.29
2023-01-09T13:15:01.000Z,71.28
2023-01-09T13:17:43.790Z,71.39
2023-01-09T13:20:22.819Z,71.69
2023-01-09T13:22:51.209Z,71.95
2023-01-09T13:25:33.660Z,71.92
2023-01-09T13:28:23.573Z,72.89
2023-01-09T13:31:09.147Z,72.88
2023-01-09T13:33:39.788Z,71.76
2023-01-09T13:36:07.140Z,71.74
2023-01-09T13:38:38.915Z,71.45
2023-01-09T13:41:34.401Z,71.76
2023-01-09T13:44:08.098Z,72.01
2023-01-09T13:46:39.263Z,71.63
2023-01-09T13:49:08.463Z,71.65
2023-01-09T13:51:37.158Z,71.21
2023-01-09T13:54:04.923Z,71.67
2023-01-09T13:56:32.279Z,72.01
2023-01-09T13:59:02.319Z,71.74
2023-01-09T14:01:36.344Z,71.34
2023-01-09T14:04:14.735Z,70.80
2023-01-09T14:06:45.268Z,71.15
2023-01-09T14:09:15.274Z,70.96
2023-01-09T14:11:43.970Z,71.02
2023-01-09T14:14:29.117Z,71.19
2023-01-09T14:16:59.541Z,71.13
2023-01-09T14:19:34.610Z,70.93
2023-01-09T14:22:02.647Z,70.90
2023-01-09T14:24:32.289Z,70.88
2023-01-09T14:27:02.041Z,70.91
2023-01-09T14:29:29.612Z,70.58
2023-01-09T14:32:26.706Z,70.71
2023-01-09T14:35:18.109Z,70.74
2023-01-09T14:37:51.605Z,70.49
2023-01-09T14:40:23.671Z,70.50
2023-01-09T14:42:58.314Z,70.54
2023-01-09T14:45:27.398Z,70.60
2023-01-09T14:48:03.879Z,70.63
2023-01-09T14:50:51.496Z,70.82
2023-01-09T14:53:24.275Z,71.20
2023-01-09T14:55:59.471Z,71.15
2023-01-09T14:58:32.429Z,71.30
2023-01-09T15:01:19.257Z,70.76
2023-01-09T15:03:51.795Z,71.00
2023-01-09T15:06:21.706Z,70.31
2023-01-09T15:08:54.175Z,70.39
2023-01-09T15:11:21.550Z,70.20
2023-01-09T15:13:51.544Z,70.38
2023-01-09T15:16:22.737Z,69.94
2023-01-09T15:18:54.110Z,70.24
2023-01-09T15:21:27.504Z,70.51
2023-01-09T15:23:55.023Z,70.01
2023-01-09T15:26:29.247Z,70.25
2023-01-09T15:29:16.368Z,70.82
2023-01-09T15:31:45.901Z,70.18
2023-01-09T15:34:19.850Z,70.08
2023-01-09T15:36:49.475Z,70.18
2023-01-09T15:39:27.140Z,70.75
2023-01-09T15:42:14.493Z,70.36
2023-01-09T15:44:44.024Z,70.42
2023-01-09T15:47:22.099Z,70.69
2023-01-09T15:49:50.790Z,70.80
2023-01-09T15:52:23.885Z,70.58
2023-01-09T15:54:51.456Z,69.96
2023-01-09T15:57:24.443Z,70.36
2023-01-09T15:59:52.305Z,70.28
2023-01-09T16:02:40.043Z,70.60
2023-01-09T16:05:15.260Z,70.26
2023-01-09T16:07:47.641Z,69.84
2023-01-09T16:10:35.160Z,70.08
2023-01-09T16:13:03.241Z,69.38
2023-01-09T16:15:34.956Z,69.59
2023-01-09T16:18:29.274Z,69.80
2023-01-09T16:21:12.907Z,69.59
2023-01-09T16:23:52.030Z,69.82
2023-01-09T16:26:23.856Z,69.64
2023-01-09T16:28:51.158Z,69.36
2023-01-09T16:31:31.664Z,68.89
2023-01-09T16:34:06.580Z,69.13
2023-01-09T16:36:37.633Z,68.55
2023-01-09T16:39:05.261Z,68.74
2023-01-09T16:41:50.739Z,68.82
2023-01-09T16:44:19.621Z,68.83
2023-01-09T16:46:46.792Z,68.53
2023-01-09T16:49:23.582Z,68.18
2023-01-09T16:51:51.853Z,68.41
2023-01-09T16:54:20.032Z,68.22
2023-01-09T16:56:54.465Z,68.08
2023-01-09T16:59:26.948Z,68.29
2023-01-09T17:01:55.263Z,68.51
2023-01-09T17:04:26.617Z,68.62
2023-01-09T17:06:53.809Z,67.98
2023-01-09T17:09:24.589Z,67.45
2023-01-09T17:11:53.044Z,68.15
2023-01-09T17:14:20.231Z,68.48
2023-01-09T17:16:48.743Z,68.29
2023-01-09T17:19:19.341Z,67.38
2023-01-09T17:21:46.677Z,68.36
2023-01-09T17:24:33.181Z,68.25
2023-01-09T17:27:20.616Z,67.90
2023-01-09T17:29:48.407Z,67.55
2023-01-09T17:32:17.225Z,67.93
2023-01-09T17:34:44.391Z,67.93
2023-01-09T17:37:19.323Z,67.13
2023-01-09T17:39:47.183Z,67.16
2023-01-09T17:42:14.400Z,67.67
2023-01-09T17:44:42.088Z,67.60
2023-01-09T17:47:18.920Z,67.89
2023-01-09T17:49:45.951Z,67.96
2023-01-09T17:52:13.555Z,68.03
2023-01-09T17:54:41.606Z,68.12
2023-01-09T17:57:15.555Z,67.74
2023-01-09T17:59:43.018Z,68.06
2023-01-09T18:02:18.600Z,68.11
2023-01-09T18:04:46.058Z,67.12
2023-01-09T18:07:16.806Z,66.72
2023-01-09T18:09:44.955Z,67.16
2023-01-09T18:12:15.362Z,66.91
2023-01-09T18:14:43.344Z,66.61
2023-01-09T18:17:13.642Z,67.18
2023-01-09T18:19:41.348Z,67.02
2023-01-09T18:22:08.406Z,66.56
2023-01-09T18:24:35.512Z,67.34
2023-01-09T18:27:02.731Z,67.53
2023-01-09T18:29:29.676Z,67.24
2023-01-09T18:31:58.437Z,67.52
2023-01-09T18:34:27.097Z,67.29
2023-01-09T18:36:54.168Z,68.10
2023-01-09T18:39:22.807Z,67.98
2023-01-09T18:41:49.835Z,67.65
2023-01-09T18:44:18.372Z,67.70
2023-01-09T18:46:47.372Z,67.52
2023-01-09T18:49:14.945Z,67.70
2023-01-09T18:51:43.640Z,67.31
2023-01-09T18:54:12.344Z,67.95
2023-01-09T18:56:40.464Z,67.97
2023-01-09T18:59:09.729Z,67.56
2023-01-09T19:01:36.972Z,67.35
2023-01-09T19:04:04.680Z,67.99
2023-01-09T19:06:32.051Z,67.18
2023-01-09T19:08:59.812Z,66.66
2023-01-09T19:11:26.856Z,66.89
2023-01-09T19:13:54.020Z,66.78
2023-01-09T19:16:21.440Z,66.92
2023-01-09T19:18:48.648Z,67.03
2023-01-09T19:21:22.409Z,67.75
2023-01-09T19:23:50.163Z,67.56
2023-01-09T19:26:20.964Z,67.05
2023-01-09T19:28:48.509Z,66.81
2023-01-09T19:31:16.470Z,67.15
2023-01-09T19:33:46.530Z,67.29
2023-01-09T19:36:13.662Z,66.86
2023-01-09T19:38:41.149Z,67.29
2023-01-09T19:41:14.610Z,67.45
2023-01-09T19:43:42.498Z,66.91
2023-01-09T19:46:19.480Z,66.88
2023-01-09T19:48:47.872Z,66.26
2023-01-09T19:51:17.087Z,66.88
2023-01-09T19:53:44.884Z,67.39
2023-01-09T19:56:13.535Z,67.14
2023-01-09T19:58:42.143Z,66.46
2023-01-09T20:01:14.729Z,66.68
2023-01-09T20:03:46.932Z,66.84
2023-01-09T20:06:18.091Z,66.56
2023-01-09T20:08:49.749Z,66.41
2023-01-09T20:11:17.532Z,66.40
2023-01-09T20:13:45.541Z,66.69
2023-01-09T20:16:21.045Z,66.66
2023-01-09T20:18:48.953Z,66.29
2023-01-09T20:23:51.602Z,66.37
2023-01-09T20:26:20.039Z,66.98
2023-01-09T20:28:47.590Z,67.05
2023-01-09T20:31:17.111Z,66.69
2023-01-09T20:33:46.318Z,66.69
2023-01-09T20:36:14.141Z,66.71
2023-01-09T20:38:42.517Z,66.66
2023-01-09T20:41:23.194Z,65.81
2023-01-09T20:43:51.239Z,66.04
2023-01-09T20:46:20.085Z,65.93
2023-01-09T20:48:47.875Z,65.75
2023-01-09T20:51:15.002Z,65.60
2023-01-09T20:53:47.074Z,65.49
2023-01-09T20:56:14.531Z,65.54
2023-01-09T20:58:42.705Z,65.57
2023-01-09T21:01:13.720Z,65.85
2023-01-09T21:03:42.260Z,66.06
2023-01-09T21:06:13.044Z,66.06
2023-01-09T21:08:45.391Z,66.34
2023-01-09T21:11:12.829Z,66.32
2023-01-09T21:13:40.273Z,66.12
2023-01-09T21:16:13.849Z,66.12
2023-01-09T21:18:41.894Z,66.14
2023-01-09T21:21:13.539Z,65.91
2023-01-09T21:23:45.833Z,65.58
2023-01-09T21:26:14.268Z,65.79
2023-01-09T21:28:49.145Z,65.98
2023-01-09T21:31:19.531Z,66.19
2023-01-09T21:33:48.243Z,66.21
2023-01-09T21:36:16.103Z,65.98
2023-01-09T21:38:43.551Z,65.94
2023-01-09T21:41:29.544Z,65.82
2023-01-09T21:44:14.800Z,66.13
2023-01-09T21:46:57.841Z,66.11
2023-01-09T21:49:27.228Z,66.00
2023-01-09T21:51:55.325Z,65.92
2023-01-09T21:54:23.917Z,65.59
2023-01-09T21:56:52.726Z,65.27
2023-01-09T21:59:20.258Z,65.37
2023-01-09T22:01:49.392Z,65.39
2023-01-09T22:04:18.138Z,65.09
2023-01-09T22:06:45.512Z,65.31
2023-01-09T22:09:14.038Z,65.59
2023-01-09T22:11:43.312Z,65.42
2023-01-09T22:14:16.849Z,65.10
2023-01-09T22:16:47.834Z,65.19
2023-01-09T22:19:19.288Z,65.36
2023-01-09T22:21:46.964Z,65.87
2023-01-09T22:24:16.464Z,66.24
2023-01-09T22:26:44.049Z,66.39
2023-01-09T22:29:11.080Z,66.43
2023-01-09T22:31:40.322Z,66.38
2023-01-09T22:34:07.609Z,66.10
2023-01-09T22:36:34.785Z,66.31
2023-01-09T22:39:02.163Z,66.05
2023-01-09T22:41:30.749Z,65.36
2023-01-09T22:43:58.628Z,64.33
2023-01-09T22:46:26.626Z,64.97
2023-01-09T22:48:53.929Z,65.17
2023-01-09T22:51:22.237Z,65.45
2023-01-09T22:53:50.112Z,65.03
2023-01-09T22:56:22.291Z,65.29
2023-01-09T22:58:53.689Z,65.77
2023-01-09T23:01:22.439Z,65.64
2023-01-09T23:03:49.441Z,65.41
2023-01-09T23:06:19.178Z,65.39
2023-01-09T23:08:47.175Z,65.28
2023-01-09T23:11:38.568Z,65.58
2023-01-09T23:14:05.666Z,65.38
2023-01-09T23:16:32.610Z,65.48
2023-01-09T23:18:59.638Z,65.09
2023-01-09T23:21:26.671Z,65.20
2023-01-09T23:23:53.608Z,65.36
2023-01-09T23:26:20.467Z,65.27
2023-01-09T23:28:47.267Z,64.90
2023-01-09T23:31:15.601Z,64.75
2023-01-09T23:33:42.541Z,64.39
2023-01-09T23:36:09.515Z,64.15
2023-01-09T23:38:39.223Z,63.94
2023-01-09T23:41:07.504Z,64.26
2023-01-09T23:43:34.551Z,64.34
2023-01-09T23:46:02.033Z,64.12
2023-01-09T23:48:29.296Z,64.07
2023-01-09T23:50:56.223Z,64.35
2023-01-09T23:53:24.191Z,64.34
2023-01-09T23:55:56.914Z,64.43
2023-01-09T23:58:24.547Z,64.29
